Latest Weather Observations for PORTABLE QFRL (Mt Fox)

IDQ60801

Issued at 9:51 am EST Wednesday 16 January 2019 (issued every 10 minutes, with the page automatically refreshed every 10 minutes)

About weather observations | Map of weather stations | Latest weather observations for QLD | Other Formats
Station Details ID: 250076 Name: PORTABLE QFRL (MOUNT FOX) Lat: -18.83 Lon: 145.80 Height: 645.0 m
Data from the previous 72 hours. | See also: Recent months for locations in Queensland
Date/Time
EST
Temp
°C
App
Temp
°C
Dew
Point
°C
Rel
Hum
%
Delta-T
°C
Wind Press
QNH
hPa
Press
MSL
hPa
Rain since
9am
mm
Dir  Spd
km/h
Gust
km/h
Spd
kts
Gust
kts
16/09:30am 24.6 27.2 20.1 76 3.0 NE 6 7 3 4 - - 0.0
16/09:20am 24.6 27.0 20.0 75 3.1 NE 7 11 4 6 - - 0.0
16/09:10am 25.2 27.5 19.4 70 3.8 NE 6 9 3 5 - - 0.0
16/09:00am 24.6 26.3 19.3 72 3.5 NE 9 13 5 7 - - 0.2
16/08:50am 24.3 26.5 19.3 73 3.3 NE 6 9 3 5 - - 0.2
16/08:40am 23.3 25.6 19.5 79 2.5 NE 6 9 3 5 - - 0.2
16/08:30am 23.2 24.9 19.3 79 2.6 NNE 9 15 5 8 - - 0.2
16/08:20am 23.1 25.2 19.4 79 2.4 NNE 7 11 4 6 - - 0.2
16/08:10am 23.5 25.1 19.2 77 2.8 NE 9 11 5 6 - - 0.2
16/08:00am 23.6 25.6 19.1 76 2.9 NE 7 11 4 6 - - 0.2
16/07:50am 23.2 25.3 18.9 77 2.8 NE 6 9 3 5 - - 0.2
16/07:40am 22.8 24.8 18.8 78 2.6 NE 6 9 3 5 - - 0.2
16/07:30am 22.5 24.4 18.5 78 2.6 NE 6 11 3 6 - - 0.2
16/07:20am 22.2 24.0 18.3 78 2.5 NE 6 9 3 5 - - 0.2
16/07:10am 21.9 23.7 18.3 80 2.3 NE 6 7 3 4 - - 0.2
16/07:00am 21.8 23.5 18.0 79 2.4 NE 6 9 3 5 - - 0.2
16/06:50am 21.0 22.6 17.8 82 2.0 NNE 6 7 3 4 - - 0.2
16/06:40am 20.2 22.1 17.6 85 1.6 NE 4 6 2 3 - - 0.2
16/06:30am 19.6 21.9 17.8 89 1.1 ENE 2 6 1 3 - - 0.2
16/06:20am 19.5 21.8 17.8 90 1.1 E 2 6 1 3 - - 0.2
16/06:10am 19.3 21.6 17.8 91 0.9 E 2 6 1 3 - - 0.2
16/06:00am 19.3 21.4 18.0 92 0.8 NNE 4 6 2 3 - - 0.2
16/05:50am 19.2 21.3 18.1 93 0.7 N 4 6 2 3 - - 0.2
16/05:40am 19.3 21.4 18.1 93 0.8 NE 4 6 2 3 - - 0.2
16/05:30am 19.3 21.8 18.1 93 0.8 NE 2 6 1 3 - - 0.2
16/05:20am 19.4 21.5 18.1 92 0.8 NE 4 7 2 4 - - 0.2
16/05:10am 19.4 21.5 18.1 92 0.8 NNE 4 7 2 4 - - 0.2
16/05:00am 19.4 21.2 18.2 93 0.8 NNE 6 7 3 4 - - 0.2
16/04:50am 19.5 21.7 18.3 93 0.8 NNE 4 6 2 3 - - 0.2
16/04:40am 19.7 22.3 18.3 92 0.9 NE 2 4 1 2 - - 0.2
16/04:30am 19.8 22.0 18.3 91 1.0 NE 4 6 2 3 - - 0.2
16/04:20am 19.9 21.8 18.5 92 0.9 ENE 6 7 3 4 - - 0.2
16/04:10am 19.9 21.8 18.6 92 0.8 ENE 6 7 3 4 - - 0.2
16/04:00am 19.9 22.3 18.7 93 0.8 ENE 4 7 2 4 - - 0.2
16/03:50am 19.9 22.6 18.7 93 0.8 NE 2 4 1 2 - - 0.2
16/03:40am 20.0 22.4 18.7 92 0.8 NE 4 7 2 4 - - 0.2
16/03:30am 20.2 22.6 18.8 92 0.9 NNE 4 9 2 5 - - 0.2
16/03:20am 20.2 22.2 18.8 92 0.9 NE 6 7 3 4 - - 0.2
16/03:10am 20.2 22.2 18.8 92 0.9 NE 6 9 3 5 - - 0.2
16/03:00am 20.4 22.8 18.8 90 1.0 NE 4 7 2 4 - - 0.2
16/02:50am 20.5 22.5 18.7 89 1.2 NE 6 9 3 5 - - 0.2
16/02:40am 20.6 22.6 18.8 89 1.2 NE 6 11 3 6 - - 0.2
16/02:30am 20.7 22.2 18.8 89 1.2 NE 9 13 5 7 - - 0.2
16/02:20am 20.7 22.5 18.8 89 1.2 NE 7 11 4 6 - - 0.2
16/02:10am 20.7 22.6 19.0 90 1.1 NE 7 11 4 6 - - 0.2
16/02:00am 20.7 22.6 19.0 90 1.1 NE 7 11 4 6 - - 0.2
16/01:50am 20.7 22.8 19.0 90 1.1 NE 6 11 3 6 - - 0.2
16/01:40am 20.7 22.8 19.0 90 1.1 NE 6 7 3 4 - - 0.2
16/01:30am 20.7 22.6 19.0 90 1.1 NE 7 9 4 5 - - 0.2
16/01:20am 20.7 22.8 18.9 89 1.2 NE 6 7 3 4 - - 0.2
16/01:10am 20.8 22.3 19.0 89 1.2 ENE 9 13 5 7 - - 0.2
16/01:00am 20.9 22.9 19.1 89 1.2 ENE 7 11 4 6 - - 0.2
16/12:50am 20.8 22.4 19.2 90 1.0 ENE 9 13 5 7 - - 0.2
16/12:40am 20.7 22.7 19.2 91 1.0 ENE 7 11 4 6 - - 0.2
16/12:30am 20.7 22.7 19.1 90 1.0 ENE 7 9 4 5 - - 0.2
16/12:20am 20.8 22.8 19.1 90 1.1 ENE 7 13 4 7 - - 0.2
16/12:10am 20.8 22.9 19.3 91 1.0 ENE 7 9 4 5 - - 0.2
16/12:00am 20.8 22.8 19.1 90 1.1 ENE 7 9 4 5 - - 0.2
 
Date/Time
EST
Temp
°C
App
Temp
°C
Dew
Point
°C
Rel
Hum
%
Delta-T
°C
Wind Press
QNH
hPa
Press
MSL
hPa
Rain since
9am
mm
Dir  Spd
km/h
Gust
km/h
Spd
kts
Gust
kts
15/11:50pm 20.9 22.9 19.1 89 1.2 ENE 7 11 4 6 - - 0.2
15/11:40pm 20.9 22.8 19.0 89 1.2 ENE 7 13 4 7 - - 0.2
15/11:30pm 20.9 22.9 19.2 90 1.1 ENE 7 9 4 5 - - 0.2
15/11:20pm 20.9 23.1 19.3 90 1.0 ENE 6 11 3 6 - - 0.2
15/11:10pm 21.0 23.2 19.5 91 1.0 ENE 7 13 4 7 - - 0.2
15/11:00pm 21.0 23.2 19.5 91 1.0 NE 7 13 4 7 - - 0.2
15/10:50pm 21.0 23.2 19.5 91 1.0 NE 7 11 4 6 - - 0.2
15/10:40pm 21.0 23.2 19.6 92 0.9 NE 7 9 4 5 - - 0.2
15/10:30pm 21.1 23.5 19.7 92 0.9 NE 6 9 3 5 - - 0.2
15/10:20pm 21.1 23.4 19.4 90 1.1 ENE 6 9 3 5 - - 0.2
15/10:10pm 21.2 22.8 19.2 88 1.3 ENE 9 15 5 8 - - 0.2
15/10:00pm 21.1 23.3 19.2 89 1.2 NE 6 11 3 6 - - 0.2
15/09:50pm 21.3 23.6 19.5 89 1.2 NE 6 7 3 4 - - 0.2
15/09:40pm 21.4 23.1 19.4 88 1.3 NE 9 13 5 7 - - 0.2
15/09:30pm 21.4 23.2 19.6 89 1.2 NE 9 11 5 6 - - 0.2
15/09:20pm 21.5 23.8 19.8 90 1.1 NE 7 11 4 6 - - 0.2
15/09:10pm 21.4 23.8 19.6 89 1.2 NE 6 11 3 6 - - 0.2
15/09:00pm 21.5 23.4 19.8 90 1.1 NE 9 9 5 5 - - 0.2
15/08:50pm 21.5 23.8 19.9 91 1.1 NE 7 9 4 5 - - 0.2
15/08:40pm 21.5 23.4 19.7 89 1.2 NE 9 15 5 8 - - 0.2
15/08:30pm 21.6 23.7 20.1 91 1.0 NE 9 17 5 9 - - 0.2
15/08:20pm 21.6 24.1 20.2 92 0.9 NE 7 11 4 6 - - 0.2
15/08:10pm 21.6 23.8 20.4 93 0.8 NE 9 13 5 7 - - 0.2
15/08:00pm 21.6 24.2 20.4 93 0.8 NE 7 11 4 6 - - 0.2
15/07:50pm 21.7 23.9 20.3 92 0.9 NE 9 15 5 8 - - 0.2
15/07:40pm 21.6 23.8 20.4 93 0.8 NE 9 11 5 6 - - 0.2
15/07:30pm 21.6 23.8 20.5 93 0.7 NE 9 11 5 6 - - 0.2
15/07:20pm 21.7 24.3 20.5 93 0.8 NE 7 11 4 6 - - 0.2
15/07:10pm 21.7 24.4 20.6 93 0.7 NE 7 11 4 6 - - 0.2
15/07:00pm 22.0 24.7 20.6 92 0.9 NE 7 11 4 6 - - 0.2
15/06:50pm 22.4 24.9 21.0 92 0.9 NE 9 13 5 7 - - 0.2
15/06:40pm 22.9 25.9 20.9 88 1.3 NE 6 9 3 5 - - 0.2
15/06:30pm 23.2 25.6 20.8 86 1.6 NE 9 13 5 7 - - 0.2
15/06:20pm 23.3 25.9 20.5 84 1.9 NE 7 11 4 6 - - 0.2
15/06:10pm 23.4 25.6 20.5 84 1.9 NE 9 13 5 7 - - 0.2
15/06:00pm 23.6 26.3 20.6 83 2.0 NE 7 13 4 7 - - 0.2
15/05:50pm 23.5 25.5 20.7 84 1.9 NE 11 13 6 7 - - 0.2
15/05:40pm 23.7 26.2 21.1 85 1.7 NNE 9 15 5 8 - - 0.2
15/05:30pm 24.4 27.4 21.3 83 2.1 NE 7 11 4 6 - - 0.2
15/05:20pm 24.6 27.5 21.1 81 2.4 NE 7 9 4 5 - - 0.2
15/05:10pm 24.7 27.6 21.0 80 2.5 NE 7 9 4 5 - - 0.2
15/05:00pm 24.8 27.5 20.6 77 2.8 NE 7 13 4 7 - - 0.2
15/04:50pm 24.9 26.3 20.3 75 3.1 NE 13 17 7 9 - - 0.2
15/04:40pm 25.3 27.4 20.1 73 3.5 ENE 9 15 5 8 - - 0.2
15/04:30pm 25.5 27.2 20.2 72 3.5 NE 11 15 6 8 - - 0.2
15/04:20pm 25.7 27.9 20.5 73 3.5 NE 9 11 5 6 - - 0.2
15/04:10pm 25.7 27.6 20.5 73 3.5 ENE 11 17 6 9 - - 0.2
15/04:00pm 25.9 28.0 21.0 74 3.3 NE 11 15 6 8 - - 0.2
15/03:50pm 26.1 28.8 20.7 72 3.6 NE 7 13 4 7 - - 0.2
15/03:40pm 25.8 28.8 21.3 76 3.1 NE 7 9 4 5 - - 0.2
15/03:30pm 25.6 27.7 21.0 75 3.1 NE 11 15 6 8 - - 0.2
15/03:20pm 25.6 27.3 21.0 75 3.1 ENE 13 17 7 9 - - 0.2
15/03:10pm 25.4 28.2 20.8 75 3.1 ENE 7 17 4 9 - - 0.2
15/03:00pm 24.6 27.4 20.9 80 2.5 NE 7 15 4 8 - - 0.2
15/02:50pm 23.5 26.2 21.3 87 1.5 ENE 9 13 5 7 - - 0.2
15/02:40pm 23.1 25.9 20.8 87 1.5 ENE 7 13 4 7 - - 0.2
15/02:30pm 23.6 26.0 20.8 84 1.9 ENE 9 15 5 8 - - 0.0
15/02:20pm 24.9 27.9 21.9 83 2.0 ENE 9 13 5 7 - - 0.0
15/02:10pm 26.7 30.0 21.9 75 3.3 ENE 7 15 4 8 - - 0.0
15/02:00pm 26.8 29.9 22.1 75 3.2 NE 9 15 5 8 - - 0.0
15/01:50pm 27.3 30.0 21.4 70 4.0 ENE 9 13 5 7 - - 0.0
15/01:40pm 27.3 30.1 20.9 68 4.3 NE 7 13 4 7 - - 0.0
15/01:30pm 26.7 29.8 21.5 73 3.5 NE 7 15 4 8 - - 0.0
15/01:20pm 26.4 29.3 21.1 72 3.6 ENE 7 13 4 7 - - 0.0
15/01:10pm 25.7 28.5 20.5 73 3.5 ENE 6 9 3 5 - - 0.0
15/01:00pm 25.3 27.3 20.7 75 3.1 ENE 11 15 6 8 - - 0.0
15/12:50pm 25.8 28.7 21.1 75 3.2 ENE 7 15 4 8 - - 0.0
15/12:40pm 25.2 28.0 21.5 80 2.5 ENE 9 13 5 7 - - 0.0
15/12:30pm 25.8 28.6 21.6 77 2.9 NE 9 15 5 8 - - 0.0
15/12:20pm 26.8 29.2 20.9 70 4.0 NE 9 13 5 7 - - 0.0
15/12:10pm 27.4 29.7 20.6 66 4.6 ENE 9 15 5 8 - - 0.0
15/12:00pm 27.7 29.4 20.1 63 5.1 ENE 11 15 6 8 - - 0.0
15/11:50am 28.0 29.9 20.5 63 5.1 E 11 13 6 7 - - 0.0
15/11:40am 28.4 30.4 20.0 60 5.6 E 9 17 5 9 - - 0.0
15/11:30am 28.8 32.2 22.0 66 4.7 NE 7 11 4 6 - - 0.0
15/11:20am 27.9 30.0 20.1 62 5.2 NE 9 13 5 7 - - 0.0
15/11:10am 27.4 29.1 20.2 65 4.8 NE 11 15 6 8 - - 0.0
15/11:00am 27.7 29.4 20.1 63 5.1 ENE 11 15 6 8 - - 0.0
15/10:50am 27.3 29.9 20.4 66 4.6 ENE 7 11 4 6 - - 0.0
15/10:40am 26.6 28.7 20.1 67 4.3 ENE 9 13 5 7 - - 0.0
15/10:30am 26.9 29.1 20.5 68 4.3 ENE 9 11 5 6 - - 0.0
15/10:20am 26.9 29.3 20.1 66 4.5 ENE 7 17 4 9 - - 0.0
15/10:00am 25.5 28.0 20.3 73 3.5 E 7 11 4 6 - - 0.0
15/09:50am 25.3 27.5 20.5 75 3.2 E 9 17 5 9 - - 0.0
15/09:40am 26.6 28.7 20.2 68 4.3 ENE 9 13 5 7 - - 0.0
15/09:30am 27.1 29.6 21.1 69 4.1 ENE 9 17 5 9 - - 0.0
15/09:20am 26.9 29.0 19.4 63 5.0 ENE 7 11 4 6 - - 0.0
15/09:10am 26.8 29.1 19.9 66 4.6 ENE 7 9 4 5 - - 0.0
15/09:00am 26.1 27.9 19.5 67 4.4 ENE 9 13 5 7 - - 0.0
15/08:50am 25.4 27.2 19.6 70 3.8 ENE 9 15 5 8 - - 0.0
15/08:40am 24.7 26.9 19.7 73 3.3 NE 7 9 4 5 - - 0.0
15/08:30am 24.0 26.7 20.2 79 2.5 E 6 15 3 8 - - 0.0
15/08:20am 24.4 27.0 20.5 79 2.6 ENE 7 13 4 7 - - 0.0
15/08:10am 24.0 26.8 20.4 80 2.4 ENE 6 11 3 6 - - 0.0
15/08:00am 23.1 25.8 20.3 84 1.9 ENE 6 7 3 4 - - 0.0
15/07:50am 22.8 25.5 20.3 86 1.7 ENE 6 9 3 5 - - 0.0
15/07:40am 23.0 25.5 20.2 84 1.9 ENE 7 11 4 6 - - 0.0
15/07:30am 23.0 26.1 20.2 84 1.9 ENE 4 7 2 4 - - 0.0
15/07:20am 22.7 25.9 20.5 87 1.5 ENE 4 6 2 3 - - 0.0
15/07:10am 22.3 25.0 20.3 88 1.3 ENE 6 7 3 4 - - 0.0
15/07:00am 22.1 25.2 20.2 89 1.3 ENE 4 9 2 5 - - 0.0
15/06:50am 22.1 25.1 20.1 88 1.3 ENE 4 7 2 4 - - 0.0
15/06:40am 21.9 25.3 20.1 89 1.2 ENE 2 6 1 3 - - 0.0
15/06:30am 21.8 25.1 20.0 89 1.2 ENE 2 4 1 2 - - 0.0
15/06:20am 21.7 25.4 20.0 90 1.1 CALM 0 2 0 1 - - 0.0
15/06:10am 21.6 24.9 19.9 90 1.1 E 2 6 1 3 - - 0.0
15/06:00am 21.6 24.9 19.9 90 1.1 ESE 2 6 1 3 - - 0.0
15/05:50am 21.5 24.4 19.9 91 1.1 ESE 4 6 2 3 - - 0.0
15/05:40am 21.4 23.9 19.8 91 1.0 E 6 9 3 5 - - 0.0
15/05:30am 21.4 24.3 19.8 91 1.0 E 4 7 2 4 - - 0.0
15/05:20am 21.5 24.4 19.9 91 1.1 E 4 7 2 4 - - 0.0
15/05:10am 21.6 24.5 19.9 90 1.1 E 4 6 2 3 - - 0.0
15/05:00am 21.6 24.1 19.9 90 1.1 E 6 9 3 5 - - 0.0
15/04:50am 21.6 24.5 19.9 90 1.1 E 4 7 2 4 - - 0.0
15/04:40am 21.6 24.1 19.8 89 1.2 E 6 9 3 5 - - 0.0
15/04:30am 21.5 24.0 19.8 90 1.1 ENE 6 11 3 6 - - 0.0
15/04:20am 21.6 24.1 19.8 89 1.2 ENE 6 9 3 5 - - 0.0
15/04:10am 21.5 24.4 19.9 91 1.1 ENE 4 7 2 4 - - 0.0
15/04:00am 21.6 24.5 19.8 89 1.2 ENE 4 7 2 4 - - 0.0
15/03:50am 21.6 24.1 19.8 89 1.2 ENE 6 11 3 6 - - 0.0
15/03:40am 21.5 23.9 19.7 89 1.2 ENE 6 9 3 5 - - 0.0
15/03:30am 21.4 23.8 19.7 90 1.1 ENE 6 11 3 6 - - 0.0
15/03:20am 21.4 24.2 19.7 90 1.1 E 4 7 2 4 - - 0.0
15/03:10am 21.5 24.4 19.8 90 1.1 ENE 4 9 2 5 - - 0.0
15/03:00am 21.5 24.3 19.7 89 1.2 ENE 4 9 2 5 - - 0.0
15/02:50am 21.6 24.5 19.8 89 1.2 E 4 6 2 3 - - 0.0
15/02:40am 21.6 24.8 19.8 89 1.2 E 2 7 1 4 - - 0.0
15/02:30am 21.6 24.9 19.9 90 1.1 NE 2 4 1 2 - - 0.0
15/02:20am 21.6 24.5 19.8 89 1.2 ENE 4 6 2 3 - - 0.0
15/02:10am 21.6 24.0 19.7 89 1.2 E 6 9 3 5 - - 0.0
15/02:00am 21.5 24.4 19.9 91 1.1 E 4 9 2 5 - - 0.0
15/01:50am 21.5 23.9 20.0 91 1.0 ENE 7 13 4 7 - - 0.0
15/01:40am 21.5 23.9 20.0 91 1.0 ENE 7 13 4 7 - - 0.0
15/01:30am 21.8 23.8 20.0 89 1.2 ENE 9 15 5 8 - - 0.0
15/01:20am 22.0 24.1 20.1 89 1.3 ENE 9 15 5 8 - - 0.0
15/01:10am 22.1 24.7 20.1 88 1.3 ENE 6 7 3 4 - - 0.0
15/01:00am 22.1 24.6 20.3 89 1.2 ENE 7 11 4 6 - - 0.0
15/12:50am 21.9 24.4 20.2 90 1.1 ENE 7 11 4 6 - - 0.0
15/12:40am 21.9 24.6 20.3 91 1.1 NE 6 7 3 4 - - 0.0
15/12:30am 21.9 24.4 20.3 91 1.1 ENE 7 13 4 7 - - 0.0
15/12:20am 22.0 24.6 20.4 91 1.1 NE 7 11 4 6 - - 0.0
15/12:10am 22.1 24.9 20.4 90 1.1 NE 6 13 3 7 - - 0.0
15/12:00am 22.2 24.3 20.2 88 1.3 ENE 9 13 5 7 - - 0.0
 
Date/Time
EST
Temp
°C
App
Temp
°C
Dew
Point
°C
Rel
Hum
%
Delta-T
°C
Wind Press
QNH
hPa
Press
MSL
hPa
Rain since
9am
mm
Dir  Spd
km/h
Gust
km/h
Spd
kts
Gust
kts
14/11:50pm 22.1 24.5 20.0 88 1.4 ENE 7 9 4 5 - - 0.0
14/11:40pm 22.1 24.5 20.0 88 1.4 ENE 7 13 4 7 - - 0.0
14/11:30pm 22.2 24.4 20.4 89 1.2 ENE 9 15 5 8 - - 0.0
14/11:20pm 22.2 24.3 20.1 88 1.4 ENE 9 15 5 8 - - 0.0
14/11:10pm 22.2 24.5 19.9 87 1.5 ENE 7 13 4 7 - - 0.0
14/11:00pm 22.3 23.9 19.9 86 1.6 ENE 11 20 6 11 - - 0.0
14/10:50pm 22.2 24.1 19.8 86 1.6 ENE 9 13 5 7 - - 0.0
14/10:40pm 22.2 24.2 19.9 87 1.5 ENE 9 13 5 7 - - 0.0
14/10:30pm 22.3 24.3 20.0 87 1.5 ENE 9 17 5 9 - - 0.0
14/10:20pm 22.3 24.0 20.1 87 1.5 ENE 11 22 6 12 - - 0.0
14/10:10pm 22.3 24.4 20.1 87 1.5 ENE 9 13 5 7 - - 0.0
14/10:00pm 22.3 24.0 20.1 87 1.5 ENE 11 15 6 8 - - 0.0
14/09:50pm 22.3 24.3 19.9 86 1.6 ENE 9 13 5 7 - - 0.0
14/09:40pm 22.3 24.7 20.1 87 1.5 ENE 7 13 4 7 - - 0.0
14/09:30pm 22.3 24.7 20.1 87 1.5 ENE 7 13 4 7 - - 0.0
14/09:20pm 22.3 24.4 20.2 88 1.4 ENE 9 13 5 7 - - 0.0
14/09:10pm 22.1 24.6 20.3 89 1.2 NE 7 13 4 7 - - 0.0
14/09:00pm 22.0 24.7 20.2 89 1.2 ENE 6 13 3 7 - - 0.0
14/08:50pm 22.0 24.7 20.2 89 1.2 NE 6 11 3 6 - - 0.0
14/08:40pm 22.1 24.8 20.2 89 1.3 NE 6 9 3 5 - - 0.0
14/08:30pm 22.2 24.9 20.2 88 1.3 NE 6 9 3 5 - - 0.0
14/08:20pm 22.2 24.8 20.1 88 1.4 NE 6 9 3 5 - - 0.0
14/08:10pm 22.1 24.6 19.9 87 1.4 NE 6 9 3 5 - - 0.0
14/08:00pm 22.1 24.6 19.8 87 1.5 NE 6 9 3 5 - - 0.0
14/07:50pm 22.2 24.5 19.8 86 1.6 NE 7 11 4 6 - - 0.0
14/07:40pm 22.2 24.6 19.7 86 1.6 NE 6 9 3 5 - - 0.0
14/07:30pm 22.3 24.4 19.4 83 1.9 NE 7 11 4 6 - - 0.0
14/07:20pm 22.4 24.6 19.7 85 1.8 NE 7 11 4 6 - - 0.0
14/07:10pm 22.5 24.9 19.7 84 1.8 NE 6 11 3 6 - - 0.0
14/07:00pm 22.7 24.5 19.6 82 2.0 NE 9 13 5 7 - - 0.0
14/06:50pm 22.8 25.1 19.8 83 2.0 NE 7 11 4 6 - - 0.0
14/06:40pm 22.9 25.1 19.5 81 2.2 NE 7 11 4 6 - - 0.0
14/06:30pm 23.0 24.8 19.5 80 2.3 NE 9 13 5 7 - - 0.0
14/06:20pm 23.2 25.4 19.7 81 2.3 NE 7 11 4 6 - - 0.0
14/06:10pm 23.4 25.3 19.7 80 2.4 NE 9 15 5 8 - - 0.0
14/06:00pm 23.6 25.9 19.8 79 2.5 NE 7 13 4 7 - - 0.0
14/05:50pm 23.8 25.9 20.1 80 2.5 NE 9 9 5 5 - - 0.0
14/05:40pm 24.2 26.7 20.3 79 2.6 NE 7 11 4 6 - - 0.0
14/05:30pm 24.6 26.3 20.2 76 2.9 ENE 11 15 6 8 - - 0.0
14/05:20pm 24.7 26.3 20.0 75 3.1 NE 11 15 6 8 - - 0.0
14/05:10pm 24.7 26.8 20.1 75 3.1 ENE 9 15 5 8 - - 0.0
14/05:00pm 24.8 27.2 20.1 75 3.1 NE 7 11 4 6 - - 0.0
14/04:50pm 24.8 27.4 20.5 77 2.9 NE 7 13 4 7 - - 0.0
14/04:40pm 25.0 27.0 20.0 74 3.3 NNE 9 13 5 7 - - 0.0
14/04:30pm 25.2 27.8 20.4 74 3.2 NE 7 11 4 6 - - 0.0
14/04:20pm 25.2 26.9 20.2 74 3.3 ENE 11 15 6 8 - - 0.0
14/04:10pm 25.8 28.2 20.1 71 3.8 ENE 7 11 4 6 - - 0.0
14/04:00pm 25.7 28.0 20.6 73 3.4 ENE 9 15 5 8 - - 0.0
14/03:50pm 26.2 28.0 20.4 70 3.9 ENE 11 15 6 8 - - 0.0
14/03:40pm 26.9 28.6 20.1 66 4.5 ENE 11 13 6 7 - - 0.0
14/03:30pm 26.5 28.7 20.5 69 4.0 ENE 9 15 5 8 - - 0.0
14/03:20pm 27.4 29.5 21.0 68 4.3 ENE 11 13 6 7 - - 0.0
14/03:10pm 26.9 28.9 20.7 69 4.2 ENE 11 17 6 9 - - 0.0
14/03:00pm 27.2 28.9 20.1 65 4.8 NE 11 20 6 11 - - 0.0
14/02:50pm 27.5 29.3 20.3 65 4.8 ENE 11 17 6 9 - - 0.0
14/02:40pm 27.2 28.9 20.2 65 4.7 ENE 11 17 6 9 - - 0.0
14/02:30pm 27.3 29.6 19.9 64 4.9 NE 7 11 4 6 - - 0.0
14/02:20pm 27.2 29.2 20.0 64 4.8 NE 9 13 5 7 - - 0.0
14/02:10pm 27.6 29.8 19.7 62 5.3 ENE 7 9 4 5 - - 0.0
14/02:00pm 27.4 28.7 19.4 61 5.3 ENE 11 17 6 9 - - 0.0
14/01:50pm 28.3 30.4 20.1 61 5.5 NE 9 15 5 8 - - 0.0
14/01:40pm 27.9 29.3 19.6 60 5.5 ENE 11 15 6 8 - - 0.0
14/01:30pm 27.8 29.5 19.3 60 5.6 NE 9 11 5 6 - - 0.0
14/01:20pm 26.8 27.8 19.5 64 4.8 ENE 13 20 7 11 - - 0.0
14/01:10pm 26.2 27.2 19.5 66 4.4 ENE 13 17 7 9 - - 0.0
14/01:00pm 26.5 28.1 19.9 67 4.4 NE 11 17 6 9 - - 0.0
14/12:50pm 27.0 28.6 20.0 65 4.7 ENE 11 17 6 9 - - 0.0
14/12:40pm 27.5 29.5 20.8 67 4.5 ENE 11 19 6 10 - - 0.0
14/12:30pm 27.1 28.6 19.8 64 4.9 ENE 11 17 6 9 - - 0.0
14/12:20pm 26.6 28.1 19.7 66 4.6 ENE 11 19 6 10 - - 0.0
14/12:10pm 27.3 29.6 20.6 67 4.5 ENE 9 13 5 7 - - 0.0
14/12:00pm 27.2 29.1 19.8 64 4.9 ENE 9 17 5 9 - - 0.0
14/11:50am 27.1 29.2 20.2 66 4.6 ENE 9 13 5 7 - - 0.0
14/11:40am 27.1 28.3 19.9 64 4.8 ENE 13 20 7 11 - - 0.0
14/11:30am 27.0 28.3 19.3 62 5.1 ENE 11 17 6 9 - - 0.0
14/11:20am 27.3 28.6 20.2 65 4.8 ENE 13 19 7 10 - - 0.0
14/11:10am 27.6 29.5 19.8 62 5.2 ENE 9 13 5 7 - - 0.0
14/11:00am 26.9 28.5 20.0 66 4.6 E 11 19 6 10 - - 0.0
14/10:50am 26.8 28.3 19.7 65 4.7 ENE 11 15 6 8 - - 0.0
14/10:40am 27.2 29.4 20.3 66 4.6 E 9 15 5 8 - - 0.0
14/10:30am 27.0 28.9 19.8 64 4.8 E 9 13 5 7 - - 0.0
14/10:20am 26.3 27.9 19.9 68 4.3 ENE 11 15 6 8 - - 0.0
14/10:10am 26.0 27.8 19.5 67 4.3 ENE 9 15 5 8 - - 0.0
14/10:00am 25.5 26.9 19.5 69 4.0 E 11 17 6 9 - - 0.0
14/09:50am 26.2 28.8 20.4 70 3.9 E 7 11 4 6 - - 0.0
14/09:40am 25.8 27.6 19.5 68 4.2 ENE 9 17 5 9 - - 0.0
14/09:30am 25.5 28.1 20.4 73 3.4 E 7 11 4 6 - - 0.0
14/09:20am 24.9 27.1 20.4 76 3.0 ENE 9 15 5 8 - - 0.0
14/09:10am 24.9 27.2 19.9 74 3.3 ENE 7 11 4 6 - - 0.0
14/09:00am 25.0 27.5 20.2 74 3.2 E 7 13 4 7 - - 0.2
14/08:50am 25.4 27.4 20.0 72 3.6 E 9 11 5 6 - - 0.2
14/08:40am 25.1 27.7 20.4 75 3.1 E 7 9 4 5 - - 0.2
14/08:30am 24.4 26.5 20.1 77 2.9 ENE 9 15 5 8 - - 0.2
14/08:20am 24.7 27.1 20.0 75 3.1 E 7 13 4 7 - - 0.2
14/08:10am 24.6 26.7 20.2 76 2.9 ENE 9 15 5 8 - - 0.2
14/08:00am 23.8 26.0 19.7 78 2.7 E 7 11 4 6 - - 0.2
14/07:50am 23.2 25.4 19.7 81 2.3 ENE 7 15 4 8 - - 0.2
14/07:40am 23.1 25.4 19.9 82 2.1 ENE 7 13 4 7 - - 0.2
14/07:30am 23.4 25.7 19.9 81 2.3 ENE 7 9 4 5 - - 0.2
14/07:20am 22.9 25.2 19.9 83 2.0 ENE 7 11 4 6 - - 0.2
14/07:10am 22.6 24.4 19.6 83 2.0 ENE 9 17 5 9 - - 0.2
14/07:00am 22.3 24.6 19.4 83 1.9 ENE 6 11 3 6 - - 0.2
14/06:50am 21.7 23.8 19.3 86 1.6 ENE 7 11 4 6 - - 0.2
14/06:40am 21.6 23.8 19.2 86 1.6 E 6 9 3 5 - - 0.2
14/06:30am 21.2 23.4 19.2 88 1.3 ENE 6 9 3 5 - - 0.0
14/06:20am 20.9 23.9 19.2 90 1.1 ENE 2 6 1 3 - - 0.0
14/06:10am 20.9 23.9 19.2 90 1.1 ENE 2 6 1 3 - - 0.0
14/06:00am 21.0 24.0 19.2 89 1.2 ENE 2 6 1 3 - - 0.0
14/05:50am 21.0 23.5 19.1 89 1.2 E 4 6 2 3 - - 0.0
14/05:40am 21.0 23.9 19.1 89 1.2 E 2 6 1 3 - - 0.0
14/05:30am 20.9 23.9 19.2 90 1.1 NE 2 6 1 3 - - 0.0
14/05:20am 21.0 23.6 19.2 89 1.2 NE 4 6 2 3 - - 0.0
14/05:10am 21.1 24.1 19.3 89 1.2 NE 2 6 1 3 - - 0.0
14/05:00am 21.1 23.8 19.4 90 1.1 ENE 4 6 2 3 - - 0.0
14/04:50am 21.1 23.7 19.3 89 1.2 ENE 4 7 2 4 - - 0.0
14/04:40am 21.1 23.8 19.4 90 1.1 E 4 7 2 4 - - 0.0
14/04:30am 21.1 23.4 19.5 90 1.0 E 6 11 3 6 - - 0.0
14/04:20am 20.9 24.0 19.5 92 0.9 ENE 2 7 1 4 - - 0.0
14/04:10am 20.7 23.7 19.3 92 0.9 NE 2 9 1 5 - - 0.0
14/04:00am 20.6 24.0 19.3 92 0.8 CALM 0 0 0 0 - - 0.0
14/03:50am 20.8 24.1 19.2 90 1.0 CALM 0 0 0 0 - - 0.0
14/03:40am 20.9 24.3 19.3 90 1.0 CALM 0 4 0 2 - - 0.0
14/03:30am 20.9 23.9 19.2 90 1.1 E 2 4 1 2 - - 0.0
14/03:20am 20.9 24.3 19.3 90 1.0 CALM 0 2 0 1 - - 0.0
14/03:10am 20.9 24.0 19.4 91 1.0 ESE 2 6 1 3 - - 0.0
14/03:00am 20.9 23.6 19.5 92 0.9 ENE 4 6 2 3 - - 0.0
14/02:50am 21.0 24.1 19.5 91 1.0 E 2 4 1 2 - - 0.0
14/02:40am 21.0 24.1 19.5 91 1.0 E 2 6 1 3 - - 0.0
14/02:30am 21.1 24.2 19.4 90 1.1 ENE 2 6 1 3 - - 0.0
14/02:20am 21.1 24.2 19.4 90 1.1 ESE 2 2 1 1 - - 0.0
14/02:10am 21.1 23.8 19.4 90 1.1 ESE 4 6 2 3 - - 0.0
14/02:00am 21.2 23.9 19.4 89 1.2 ENE 4 7 2 4 - - 0.0
14/01:50am 21.2 23.9 19.4 89 1.2 ENE 4 7 2 4 - - 0.0
14/01:40am 21.2 23.9 19.4 89 1.2 ENE 4 6 2 3 - - 0.0
14/01:30am 21.2 23.9 19.4 89 1.2 ENE 4 7 2 4 - - 0.0
14/01:20am 21.2 23.4 19.3 89 1.2 ENE 6 7 3 4 - - 0.0
14/01:10am 21.1 23.7 19.3 89 1.2 NE 4 6 2 3 - - 0.0
14/01:00am 21.1 23.8 19.5 90 1.0 NE 4 6 2 3 - - 0.0
14/12:50am 21.2 23.5 19.4 89 1.2 NE 6 11 3 6 - - 0.0
14/12:40am 21.1 23.8 19.4 90 1.1 ENE 4 7 2 4 - - 0.0
14/12:30am 21.2 23.8 19.3 89 1.2 NE 4 7 2 4 - - 0.0
14/12:20am 21.2 23.4 19.2 88 1.3 ENE 6 9 3 5 - - 0.0
14/12:10am 20.8 23.4 19.3 91 1.0 NE 4 6 2 3 - - 0.0
14/12:00am 20.6 23.7 19.5 93 0.7 ENE 2 4 1 2 - - 0.0
 
Date/Time
EST
Temp
°C
App
Temp
°C
Dew
Point
°C
Rel
Hum
%
Delta-T
°C
Wind Press
QNH
hPa
Press
MSL
hPa
Rain since
9am
mm
Dir  Spd
km/h
Gust
km/h
Spd
kts
Gust
kts
13/11:50pm 20.6 24.1 19.5 93 0.7 CALM 0 0 0 0 - - 0.0
13/11:40pm 20.6 24.1 19.6 94 0.7 CALM 0 0 0 0 - - 0.0
13/11:30pm 20.7 24.2 19.6 93 0.7 CALM 0 0 0 0 - - 0.0
13/11:20pm 20.8 24.4 19.7 93 0.7 CALM 0 4 0 2 - - 0.0
13/11:10pm 20.9 24.5 19.7 93 0.8 CALM 0 2 0 1 - - 0.0
13/11:00pm 20.9 24.1 19.7 93 0.8 ESE 2 2 1 1 - - 0.0
13/10:50pm 21.0 24.2 19.8 93 0.8 E 2 2 1 1 - - 0.0
13/10:40pm 21.2 24.8 19.8 92 0.9 CALM 0 0 0 0 - - 0.0
13/10:30pm 21.3 24.9 19.8 91 1.0 CALM 0 2 0 1 - - 0.0
13/10:20pm 21.4 25.1 19.9 91 1.0 CALM 0 2 0 1 - - 0.0
13/10:10pm 21.5 25.2 19.9 91 1.1 CALM 0 2 0 1 - - 0.0
13/10:00pm 21.6 24.9 19.9 90 1.1 NE 2 2 1 1 - - 0.0
13/09:50pm 21.7 24.6 19.9 89 1.2 E 4 6 2 3 - - 0.0
13/09:40pm 21.8 24.7 19.9 89 1.2 E 4 7 2 4 - - 0.0
13/09:30pm 21.9 24.4 19.8 88 1.4 E 6 7 3 4 - - 0.0
13/09:20pm 21.8 24.3 19.9 89 1.2 ENE 6 7 3 4 - - 0.0
13/09:10pm 21.8 24.3 20.2 91 1.1 ENE 7 13 4 7 - - 0.0
13/09:00pm 21.7 24.9 20.5 93 0.8 NE 4 7 2 4 - - 0.0
13/08:50pm 21.8 25.0 20.4 92 0.9 ENE 4 9 2 5 - - 0.0
13/08:40pm 21.9 24.9 20.1 89 1.2 ENE 4 7 2 4 - - 0.0
13/08:30pm 22.0 24.7 20.3 90 1.1 NE 6 6 3 3 - - 0.0
13/08:20pm 22.2 24.9 20.2 88 1.3 NE 6 7 3 4 - - 0.0
13/08:10pm 22.2 25.2 20.0 87 1.5 NE 4 7 2 4 - - 0.0
13/08:00pm 22.3 24.9 20.0 87 1.5 NE 6 7 3 4 - - 0.0
13/07:50pm 22.4 25.4 20.0 86 1.6 NE 4 7 2 4 - - 0.0
13/07:40pm 22.5 25.5 20.0 86 1.6 NE 4 7 2 4 - - 0.0
13/07:30pm 22.6 25.5 19.9 85 1.8 NE 4 9 2 5 - - 0.0
13/07:20pm 22.6 25.9 20.0 85 1.7 NE 2 4 1 2 - - 0.0
13/07:10pm 22.6 25.5 19.8 84 1.8 NE 4 6 2 3 - - 0.0
13/07:00pm 22.7 25.6 19.9 84 1.8 NE 4 6 2 3 - - 0.0
13/06:50pm 22.9 25.4 19.8 83 2.0 NE 6 7 3 4 - - 0.0
13/06:40pm 23.2 25.6 19.6 80 2.4 NE 6 7 3 4 - - 0.0
13/06:30pm 23.4 25.6 19.7 80 2.4 NE 7 13 4 7 - - 0.0
13/06:20pm 23.6 26.2 20.1 81 2.3 NE 6 9 3 5 - - 0.0
13/06:10pm 23.8 26.3 19.8 78 2.6 NE 6 9 3 5 - - 0.0
13/06:00pm 23.9 26.1 19.6 77 2.8 ENE 7 11 4 6 - - 0.0
13/05:50pm 24.1 26.3 19.7 76 2.9 ENE 7 13 4 7 - - 0.0
13/05:40pm 24.6 26.4 19.5 73 3.4 ENE 9 13 5 7 - - 0.0
13/05:30pm 25.2 27.5 19.5 70 3.8 NE 6 9 3 5 - - 0.0
13/05:20pm 25.2 27.2 19.2 69 3.9 ENE 7 13 4 7 - - 0.0
13/05:10pm 25.7 27.2 18.9 66 4.5 ENE 9 15 5 8 - - 0.0
13/05:00pm 25.6 27.1 18.1 63 4.9 NE 7 11 4 6 - - 0.0
13/04:50pm 25.6 27.7 19.3 68 4.2 NNE 7 13 4 7 - - 0.0
13/04:40pm 26.4 27.7 19.4 65 4.6 NNE 11 17 6 9 - - 0.0
13/04:30pm 26.7 28.3 19.2 63 5.0 NNE 9 17 5 9 - - 0.0
13/04:20pm 27.3 29.3 19.1 61 5.4 ENE 7 11 4 6 - - 0.0
13/04:10pm 27.1 28.8 19.4 62 5.1 NNE 9 15 5 8 - - 0.0
13/04:00pm 27.0 28.8 18.8 60 5.4 NE 7 11 4 6 - - 0.0
13/03:50pm 26.9 28.1 19.0 62 5.2 NE 11 13 6 7 - - 0.0
13/03:40pm 27.1 28.5 18.6 59 5.6 NNE 9 11 5 6 - - 0.0
13/03:30pm 27.2 28.1 18.5 59 5.7 NE 11 15 6 8 - - 0.0
13/03:20pm 27.1 27.8 18.0 57 5.9 NE 11 15 6 8 - - 0.0
13/03:10pm 27.6 28.8 18.2 56 6.1 NE 9 15 5 8 - - 0.0
13/03:00pm 27.5 28.3 18.2 57 6.1 NE 11 15 6 8 - - 0.0
13/02:50pm 27.5 28.8 18.5 58 5.9 NE 9 13 5 7 - - 0.0
13/02:40pm 27.4 28.5 18.1 57 6.1 ENE 9 13 5 7 - - 0.0
13/02:30pm 27.3 29.3 19.2 61 5.4 NE 7 15 4 8 - - 0.0
13/02:20pm 27.4 28.9 19.0 60 5.5 NE 9 13 5 7 - - 0.0
13/02:10pm 27.5 29.1 19.2 60 5.5 NE 9 13 5 7 - - 0.0
13/02:00pm 27.2 27.7 18.4 58 5.8 NNE 13 17 7 9 - - 0.0
13/01:50pm 27.3 28.2 18.5 58 5.8 NE 11 15 6 8 - - 0.0
13/01:40pm 27.3 29.3 19.1 61 5.4 ENE 7 11 4 6 - - 0.0
13/01:30pm 27.4 28.6 18.3 57 5.9 NE 9 15 5 8 - - 0.0
13/01:20pm 26.9 28.0 18.1 58 5.7 NE 9 13 5 7 - - 0.0
13/01:10pm 26.9 27.5 17.6 56 6.0 ENE 11 15 6 8 - - 0.0
13/01:00pm 26.9 27.8 18.4 59 5.6 ENE 11 15 6 8 - - 0.0
13/12:50pm 27.4 28.6 18.3 57 5.9 ENE 9 15 5 8 - - 0.0
13/12:40pm 27.4 28.8 18.7 59 5.7 ENE 9 19 5 10 - - 0.0
13/12:30pm 27.0 28.4 17.7 56 6.0 ENE 7 11 4 6 - - 0.0
13/12:20pm 27.0 27.6 17.6 56 6.1 E 11 17 6 9 - - 0.0
13/12:10pm 27.1 27.7 18.7 60 5.5 NE 13 17 7 9 - - 0.0
13/12:00pm 26.9 27.7 17.3 55 6.2 ENE 9 15 5 8 - - 0.0
13/11:50am 26.1 27.5 18.6 63 4.9 ENE 9 13 5 7 - - 0.0
13/11:40am 26.3 27.9 18.3 61 5.2 ENE 7 13 4 7 - - 0.0
13/11:30am 27.2 28.6 18.7 59 5.6 NE 9 13 5 7 - - 0.0
13/11:20am 27.1 28.3 18.2 58 5.8 ENE 9 13 5 7 - - 0.0
13/11:10am 27.0 27.9 17.5 56 6.1 ENE 9 17 5 9 - - 0.0
13/11:00am 26.4 27.0 17.7 58 5.6 E 11 17 6 9 - - 0.0
13/10:50am 26.4 27.0 17.7 58 5.6 ENE 11 15 6 8 - - 0.0
13/10:40am 26.6 28.1 19.0 63 5.0 ENE 9 15 5 8 - - 0.0
13/10:30am 25.8 27.1 18.5 64 4.8 E 9 13 5 7 - - 0.0
13/10:20am 25.8 26.6 18.1 62 5.0 ENE 11 19 6 10 - - 0.0
13/10:10am 25.4 27.3 19.0 67 4.2 ENE 7 9 4 5 - - 0.0
13/10:00am 25.0 26.8 18.8 68 4.0 ENE 7 11 4 6 - - 0.0

Other Formats:

Comma delimited format used in spreadsheet applications
http://www.bom.gov.au/fwo/IDQ60801/IDQ60801.99125.axf

JavaScript Object Notation format (JSON) in row-major order
http://www.bom.gov.au/fwo/IDQ60801/IDQ60801.99125.json